sensor_id;sensor_type;location;lat;lon;timestamp;P1;durP1;ratioP1;P2;durP2;ratioP2
57337;SDS011;43173;50.980;18.204;2023-03-14T00:00:53;5.20;;;2.80;;
57337;SDS011;43173;50.980;18.204;2023-03-14T00:03:19;6.30;;;3.20;;
57337;SDS011;43173;50.980;18.204;2023-03-14T00:05:44;6.70;;;2.90;;
57337;SDS011;43173;50.980;18.204;2023-03-14T00:08:10;6.20;;;3.30;;
57337;SDS011;43173;50.980;18.204;2023-03-14T00:10:36;8.50;;;3.60;;
57337;SDS011;43173;50.980;18.204;2023-03-14T00:13:03;9.20;;;4.00;;
57337;SDS011;43173;50.980;18.204;2023-03-14T00:15:29;8.80;;;3.30;;
57337;SDS011;43173;50.980;18.204;2023-03-14T00:17:54;8.20;;;3.50;;
57337;SDS011;43173;50.980;18.204;2023-03-14T00:20:20;5.70;;;2.50;;
57337;SDS011;43173;50.980;18.204;2023-03-14T00:22:46;5.90;;;2.80;;
57337;SDS011;43173;50.980;18.204;2023-03-14T00:25:12;5.70;;;2.90;;
57337;SDS011;43173;50.980;18.204;2023-03-14T00:27:37;9.60;;;3.20;;
57337;SDS011;43173;50.980;18.204;2023-03-14T00:30:04;6.40;;;2.80;;
57337;SDS011;43173;50.980;18.204;2023-03-14T00:32:30;4.60;;;2.50;;
57337;SDS011;43173;50.980;18.204;2023-03-14T00:34:56;6.90;;;2.70;;
57337;SDS011;43173;50.980;18.204;2023-03-14T00:37:22;6.60;;;3.40;;
57337;SDS011;43173;50.980;18.204;2023-03-14T00:39:47;6.10;;;2.80;;
57337;SDS011;43173;50.980;18.204;2023-03-14T00:42:13;5.80;;;2.70;;
57337;SDS011;43173;50.980;18.204;2023-03-14T00:44:39;6.60;;;2.90;;
57337;SDS011;43173;50.980;18.204;2023-03-14T00:47:04;7.90;;;3.00;;
57337;SDS011;43173;50.980;18.204;2023-03-14T00:49:30;9.00;;;3.30;;
57337;SDS011;43173;50.980;18.204;2023-03-14T00:51:55;5.00;;;2.50;;
57337;SDS011;43173;50.980;18.204;2023-03-14T00:54:21;6.40;;;3.10;;
57337;SDS011;43173;50.980;18.204;2023-03-14T00:56:47;5.40;;;2.80;;
57337;SDS011;43173;50.980;18.204;2023-03-14T00:59:12;7.30;;;3.50;;
57337;SDS011;43173;50.980;18.204;2023-03-14T01:01:38;11.30;;;5.90;;
57337;SDS011;43173;50.980;18.204;2023-03-14T01:04:04;43.60;;;16.60;;
57337;SDS011;43173;50.980;18.204;2023-03-14T01:06:30;56.50;;;20.60;;
57337;SDS011;43173;50.980;18.204;2023-03-14T01:08:57;48.80;;;19.70;;
57337;SDS011;43173;50.980;18.204;2023-03-14T01:11:30;29.00;;;12.90;;
57337;SDS011;43173;50.980;18.204;2023-03-14T01:13:57;13.60;;;5.60;;
57337;SDS011;43173;50.980;18.204;2023-03-14T01:16:24;7.30;;;3.40;;
57337;SDS011;43173;50.980;18.204;2023-03-14T01:18:51;8.20;;;2.90;;
57337;SDS011;43173;50.980;18.204;2023-03-14T01:21:19;4.70;;;2.50;;
57337;SDS011;43173;50.980;18.204;2023-03-14T01:23:49;5.60;;;3.00;;
57337;SDS011;43173;50.980;18.204;2023-03-14T01:26:16;8.70;;;3.00;;
57337;SDS011;43173;50.980;18.204;2023-03-14T01:28:47;7.20;;;3.30;;
57337;SDS011;43173;50.980;18.204;2023-03-14T01:31:14;6.60;;;3.40;;
57337;SDS011;43173;50.980;18.204;2023-03-14T01:33:40;9.60;;;4.30;;
57337;SDS011;43173;50.980;18.204;2023-03-14T01:36:06;10.40;;;4.10;;
57337;SDS011;43173;50.980;18.204;2023-03-14T01:38:33;8.80;;;3.90;;
57337;SDS011;43173;50.980;18.204;2023-03-14T01:41:01;6.90;;;3.70;;
57337;SDS011;43173;50.980;18.204;2023-03-14T01:43:28;5.10;;;3.20;;
57337;SDS011;43173;50.980;18.204;2023-03-14T01:48:40;8.00;;;3.10;;
57337;SDS011;43173;50.980;18.204;2023-03-14T01:51:13;4.70;;;2.90;;
57337;SDS011;43173;50.980;18.204;2023-03-14T01:53:41;6.80;;;3.20;;
57337;SDS011;43173;50.980;18.204;2023-03-14T01:56:08;6.90;;;2.90;;
57337;SDS011;43173;50.980;18.204;2023-03-14T01:58:34;6.60;;;3.40;;
57337;SDS011;43173;50.980;18.204;2023-03-14T02:01:01;8.10;;;5.10;;
57337;SDS011;43173;50.980;18.204;2023-03-14T02:03:28;7.40;;;5.20;;
57337;SDS011;43173;50.980;18.204;2023-03-14T02:05:55;7.40;;;4.20;;
57337;SDS011;43173;50.980;18.204;2023-03-14T02:08:24;8.90;;;3.70;;
57337;SDS011;43173;50.980;18.204;2023-03-14T02:10:52;5.20;;;3.40;;
57337;SDS011;43173;50.980;18.204;2023-03-14T02:13:18;6.40;;;3.80;;
57337;SDS011;43173;50.980;18.204;2023-03-14T02:15:45;9.30;;;4.10;;
57337;SDS011;43173;50.980;18.204;2023-03-14T02:18:11;6.90;;;3.90;;
57337;SDS011;43173;50.980;18.204;2023-03-14T02:23:36;8.40;;;4.20;;
57337;SDS011;43173;50.980;18.204;2023-03-14T02:26:24;13.90;;;7.50;;
57337;SDS011;43173;50.980;18.204;2023-03-14T02:28:57;19.80;;;9.90;;
57337;SDS011;43173;50.980;18.204;2023-03-14T02:31:23;13.80;;;7.80;;
57337;SDS011;43173;50.980;18.204;2023-03-14T02:33:49;15.00;;;6.50;;
57337;SDS011;43173;50.980;18.204;2023-03-14T02:36:15;11.90;;;5.90;;
57337;SDS011;43173;50.980;18.204;2023-03-14T02:41:13;33.00;;;13.60;;
57337;SDS011;43173;50.980;18.204;2023-03-14T02:43:39;29.40;;;13.40;;
57337;SDS011;43173;50.980;18.204;2023-03-14T02:46:05;14.70;;;7.20;;
57337;SDS011;43173;50.980;18.204;2023-03-14T02:48:33;12.30;;;5.20;;
57337;SDS011;43173;50.980;18.204;2023-03-14T02:51:04;9.00;;;4.20;;
57337;SDS011;43173;50.980;18.204;2023-03-14T02:53:32;9.10;;;4.00;;
57337;SDS011;43173;50.980;18.204;2023-03-14T02:55:59;7.20;;;3.30;;
57337;SDS011;43173;50.980;18.204;2023-03-14T02:58:25;6.50;;;3.20;;
57337;SDS011;43173;50.980;18.204;2023-03-14T03:00:51;5.10;;;3.10;;
57337;SDS011;43173;50.980;18.204;2023-03-14T03:03:16;7.60;;;3.00;;
57337;SDS011;43173;50.980;18.204;2023-03-14T03:05:42;5.90;;;2.70;;
57337;SDS011;43173;50.980;18.204;2023-03-14T03:08:09;6.40;;;3.00;;
57337;SDS011;43173;50.980;18.204;2023-03-14T03:10:35;9.90;;;4.30;;
57337;SDS011;43173;50.980;18.204;2023-03-14T03:13:01;10.50;;;5.40;;
57337;SDS011;43173;50.980;18.204;2023-03-14T03:15:27;7.30;;;3.90;;
57337;SDS011;43173;50.980;18.204;2023-03-14T03:17:53;5.40;;;3.70;;
57337;SDS011;43173;50.980;18.204;2023-03-14T03:20:19;7.30;;;2.90;;
57337;SDS011;43173;50.980;18.204;2023-03-14T03:22:44;10.20;;;3.40;;
57337;SDS011;43173;50.980;18.204;2023-03-14T03:25:10;9.50;;;3.10;;
57337;SDS011;43173;50.980;18.204;2023-03-14T03:27:36;10.00;;;3.80;;
57337;SDS011;43173;50.980;18.204;2023-03-14T03:30:03;6.70;;;3.10;;
57337;SDS011;43173;50.980;18.204;2023-03-14T03:32:30;5.60;;;3.30;;
57337;SDS011;43173;50.980;18.204;2023-03-14T03:34:56;6.00;;;2.90;;
57337;SDS011;43173;50.980;18.204;2023-03-14T03:37:22;6.40;;;2.20;;
57337;SDS011;43173;50.980;18.204;2023-03-14T03:39:49;5.80;;;2.60;;
57337;SDS011;43173;50.980;18.204;2023-03-14T03:42:16;7.20;;;2.80;;
57337;SDS011;43173;50.980;18.204;2023-03-14T03:44:42;4.50;;;2.40;;
57337;SDS011;43173;50.980;18.204;2023-03-14T03:47:08;7.10;;;3.90;;
57337;SDS011;43173;50.980;18.204;2023-03-14T03:49:33;9.20;;;4.90;;
57337;SDS011;43173;50.980;18.204;2023-03-14T03:51:59;12.70;;;6.80;;
57337;SDS011;43173;50.980;18.204;2023-03-14T03:54:25;7.90;;;4.50;;
57337;SDS011;43173;50.980;18.204;2023-03-14T03:56:51;4.40;;;3.10;;
57337;SDS011;43173;50.980;18.204;2023-03-14T03:59:17;6.60;;;3.10;;
57337;SDS011;43173;50.980;18.204;2023-03-14T04:01:43;3.40;;;2.40;;
57337;SDS011;43173;50.980;18.204;2023-03-14T04:04:10;5.00;;;2.70;;
57337;SDS011;43173;50.980;18.204;2023-03-14T04:06:36;6.50;;;2.80;;
57337;SDS011;43173;50.980;18.204;2023-03-14T04:09:02;4.70;;;2.60;;
57337;SDS011;43173;50.980;18.204;2023-03-14T04:11:29;5.90;;;2.60;;
57337;SDS011;43173;50.980;18.204;2023-03-14T04:13:54;6.30;;;3.20;;
57337;SDS011;43173;50.980;18.204;2023-03-14T04:16:21;4.90;;;2.60;;
57337;SDS011;43173;50.980;18.204;2023-03-14T04:18:48;6.60;;;2.60;;
57337;SDS011;43173;50.980;18.204;2023-03-14T04:21:14;9.20;;;3.30;;
57337;SDS011;43173;50.980;18.204;2023-03-14T04:23:40;7.70;;;3.50;;
57337;SDS011;43173;50.980;18.204;2023-03-14T04:26:06;6.20;;;2.70;;
57337;SDS011;43173;50.980;18.204;2023-03-14T04:28:32;5.10;;;2.80;;
57337;SDS011;43173;50.980;18.204;2023-03-14T04:30:58;4.20;;;2.40;;
57337;SDS011;43173;50.980;18.204;2023-03-14T04:33:24;6.80;;;2.90;;
57337;SDS011;43173;50.980;18.204;2023-03-14T04:35:52;5.20;;;2.90;;
57337;SDS011;43173;50.980;18.204;2023-03-14T04:38:19;8.10;;;4.70;;
57337;SDS011;43173;50.980;18.204;2023-03-14T04:40:45;6.00;;;3.80;;
57337;SDS011;43173;50.980;18.204;2023-03-14T04:43:10;5.50;;;2.70;;
57337;SDS011;43173;50.980;18.204;2023-03-14T04:45:37;6.70;;;2.80;;
57337;SDS011;43173;50.980;18.204;2023-03-14T04:48:07;3.70;;;2.70;;
57337;SDS011;43173;50.980;18.204;2023-03-14T04:50:32;5.00;;;2.50;;
57337;SDS011;43173;50.980;18.204;2023-03-14T04:52:58;6.30;;;3.20;;
57337;SDS011;43173;50.980;18.204;2023-03-14T04:55:24;4.10;;;2.40;;
57337;SDS011;43173;50.980;18.204;2023-03-14T04:57:49;5.60;;;3.30;;
57337;SDS011;43173;50.980;18.204;2023-03-14T05:00:15;6.20;;;3.20;;
57337;SDS011;43173;50.980;18.204;2023-03-14T05:02:44;5.40;;;2.60;;
57337;SDS011;43173;50.980;18.204;2023-03-14T05:05:09;5.80;;;3.30;;
57337;SDS011;43173;50.980;18.204;2023-03-14T05:07:35;4.80;;;2.90;;
57337;SDS011;43173;50.980;18.204;2023-03-14T05:10:01;6.00;;;3.30;;
57337;SDS011;43173;50.980;18.204;2023-03-14T05:12:28;6.40;;;2.70;;
57337;SDS011;43173;50.980;18.204;2023-03-14T05:14:53;6.10;;;3.00;;
57337;SDS011;43173;50.980;18.204;2023-03-14T05:17:19;4.20;;;2.00;;
57337;SDS011;43173;50.980;18.204;2023-03-14T05:19:45;3.70;;;2.00;;
57337;SDS011;43173;50.980;18.204;2023-03-14T05:22:11;3.40;;;2.50;;
57337;SDS011;43173;50.980;18.204;2023-03-14T05:24:37;4.70;;;2.30;;
57337;SDS011;43173;50.980;18.204;2023-03-14T05:27:03;3.30;;;2.00;;
57337;SDS011;43173;50.980;18.204;2023-03-14T05:29:29;7.50;;;2.50;;
57337;SDS011;43173;50.980;18.204;2023-03-14T05:31:56;4.80;;;2.10;;
57337;SDS011;43173;50.980;18.204;2023-03-14T05:34:21;5.00;;;2.50;;
57337;SDS011;43173;50.980;18.204;2023-03-14T05:36:47;4.70;;;2.00;;
57337;SDS011;43173;50.980;18.204;2023-03-14T05:39:13;7.30;;;3.10;;
57337;SDS011;43173;50.980;18.204;2023-03-14T05:41:38;17.50;;;6.50;;
57337;SDS011;43173;50.980;18.204;2023-03-14T05:44:04;24.70;;;8.30;;
57337;SDS011;43173;50.980;18.204;2023-03-14T05:46:30;23.00;;;7.40;;
57337;SDS011;43173;50.980;18.204;2023-03-14T05:48:56;18.10;;;6.20;;
57337;SDS011;43173;50.980;18.204;2023-03-14T05:51:23;14.00;;;5.70;;
57337;SDS011;43173;50.980;18.204;2023-03-14T05:53:48;8.50;;;4.60;;
57337;SDS011;43173;50.980;18.204;2023-03-14T05:56:14;9.80;;;4.10;;
57337;SDS011;43173;50.980;18.204;2023-03-14T05:58:40;5.00;;;2.60;;
57337;SDS011;43173;50.980;18.204;2023-03-14T06:01:06;5.50;;;2.70;;
57337;SDS011;43173;50.980;18.204;2023-03-14T06:03:32;4.90;;;2.90;;
57337;SDS011;43173;50.980;18.204;2023-03-14T06:05:58;6.70;;;2.90;;
57337;SDS011;43173;50.980;18.204;2023-03-14T06:08:23;4.80;;;2.50;;
57337;SDS011;43173;50.980;18.204;2023-03-14T06:10:50;4.90;;;2.50;;
57337;SDS011;43173;50.980;18.204;2023-03-14T06:13:16;4.40;;;2.30;;
57337;SDS011;43173;50.980;18.204;2023-03-14T06:15:42;4.00;;;2.50;;
57337;SDS011;43173;50.980;18.204;2023-03-14T06:18:08;5.00;;;2.20;;
57337;SDS011;43173;50.980;18.204;2023-03-14T06:20:35;6.00;;;2.20;;
57337;SDS011;43173;50.980;18.204;2023-03-14T06:23:02;6.00;;;2.60;;
57337;SDS011;43173;50.980;18.204;2023-03-14T06:25:27;4.10;;;2.30;;
57337;SDS011;43173;50.980;18.204;2023-03-14T06:27:53;6.00;;;2.90;;
57337;SDS011;43173;50.980;18.204;2023-03-14T06:30:19;4.40;;;2.50;;
57337;SDS011;43173;50.980;18.204;2023-03-14T06:32:45;5.60;;;2.60;;
57337;SDS011;43173;50.980;18.204;2023-03-14T06:35:10;3.80;;;2.30;;
57337;SDS011;43173;50.980;18.204;2023-03-14T06:37:36;7.50;;;2.90;;
57337;SDS011;43173;50.980;18.204;2023-03-14T06:40:02;3.80;;;2.50;;
57337;SDS011;43173;50.980;18.204;2023-03-14T06:42:28;5.20;;;2.20;;
57337;SDS011;43173;50.980;18.204;2023-03-14T06:44:54;4.00;;;3.10;;
57337;SDS011;43173;50.980;18.204;2023-03-14T06:47:19;6.30;;;3.70;;
57337;SDS011;43173;50.980;18.204;2023-03-14T06:49:46;5.70;;;2.60;;
57337;SDS011;43173;50.980;18.204;2023-03-14T06:52:11;4.70;;;2.90;;
57337;SDS011;43173;50.980;18.204;2023-03-14T06:54:37;5.00;;;2.50;;
57337;SDS011;43173;50.980;18.204;2023-03-14T06:57:03;5.00;;;2.60;;
57337;SDS011;43173;50.980;18.204;2023-03-14T06:59:28;6.50;;;2.90;;
57337;SDS011;43173;50.980;18.204;2023-03-14T07:01:54;2.40;;;1.70;;
57337;SDS011;43173;50.980;18.204;2023-03-14T07:04:20;4.60;;;2.50;;
57337;SDS011;43173;50.980;18.204;2023-03-14T07:06:45;4.30;;;2.10;;
57337;SDS011;43173;50.980;18.204;2023-03-14T07:09:13;6.10;;;3.10;;
57337;SDS011;43173;50.980;18.204;2023-03-14T07:11:39;4.40;;;2.70;;
57337;SDS011;43173;50.980;18.204;2023-03-14T07:14:06;11.60;;;2.80;;
57337;SDS011;43173;50.980;18.204;2023-03-14T07:16:32;5.30;;;2.50;;
57337;SDS011;43173;50.980;18.204;2023-03-14T07:18:58;7.70;;;3.20;;
57337;SDS011;43173;50.980;18.204;2023-03-14T07:21:24;4.70;;;2.70;;
57337;SDS011;43173;50.980;18.204;2023-03-14T07:23:50;4.20;;;3.00;;
57337;SDS011;43173;50.980;18.204;2023-03-14T07:26:16;5.90;;;3.20;;
57337;SDS011;43173;50.980;18.204;2023-03-14T07:28:41;4.30;;;2.60;;
57337;SDS011;43173;50.980;18.204;2023-03-14T07:31:07;5.40;;;2.90;;
57337;SDS011;43173;50.980;18.204;2023-03-14T07:33:33;5.20;;;2.90;;
57337;SDS011;43173;50.980;18.204;2023-03-14T07:35:59;4.90;;;2.40;;
57337;SDS011;43173;50.980;18.204;2023-03-14T07:38:25;4.70;;;2.60;;
57337;SDS011;43173;50.980;18.204;2023-03-14T07:40:52;4.50;;;2.70;;
57337;SDS011;43173;50.980;18.204;2023-03-14T07:43:23;8.60;;;3.50;;
57337;SDS011;43173;50.980;18.204;2023-03-14T07:45:49;8.50;;;4.00;;
57337;SDS011;43173;50.980;18.204;2023-03-14T07:48:14;6.20;;;3.50;;
57337;SDS011;43173;50.980;18.204;2023-03-14T07:50:40;7.80;;;3.60;;
57337;SDS011;43173;50.980;18.204;2023-03-14T07:53:05;8.00;;;3.40;;
57337;SDS011;43173;50.980;18.204;2023-03-14T07:55:31;6.40;;;3.00;;
57337;SDS011;43173;50.980;18.204;2023-03-14T07:57:57;8.10;;;3.50;;
57337;SDS011;43173;50.980;18.204;2023-03-14T08:00:22;9.90;;;3.60;;
57337;SDS011;43173;50.980;18.204;2023-03-14T08:02:48;6.10;;;3.10;;
57337;SDS011;43173;50.980;18.204;2023-03-14T08:05:13;9.90;;;3.40;;
57337;SDS011;43173;50.980;18.204;2023-03-14T08:07:39;8.50;;;4.50;;
57337;SDS011;43173;50.980;18.204;2023-03-14T08:10:05;10.60;;;4.90;;
57337;SDS011;43173;50.980;18.204;2023-03-14T08:12:31;10.10;;;4.60;;
57337;SDS011;43173;50.980;18.204;2023-03-14T08:14:57;5.70;;;3.80;;
57337;SDS011;43173;50.980;18.204;2023-03-14T08:17:25;9.10;;;4.10;;
57337;SDS011;43173;50.980;18.204;2023-03-14T08:19:51;9.50;;;4.10;;
57337;SDS011;43173;50.980;18.204;2023-03-14T08:22:16;8.10;;;3.50;;
57337;SDS011;43173;50.980;18.204;2023-03-14T08:24:42;6.30;;;3.60;;
57337;SDS011;43173;50.980;18.204;2023-03-14T08:27:07;9.60;;;4.40;;
57337;SDS011;43173;50.980;18.204;2023-03-14T08:29:33;5.50;;;3.70;;
57337;SDS011;43173;50.980;18.204;2023-03-14T08:31:59;9.50;;;4.50;;
57337;SDS011;43173;50.980;18.204;2023-03-14T08:34:25;10.30;;;4.90;;
57337;SDS011;43173;50.980;18.204;2023-03-14T08:36:50;5.90;;;3.50;;
57337;SDS011;43173;50.980;18.204;2023-03-14T08:39:16;8.30;;;3.40;;
57337;SDS011;43173;50.980;18.204;2023-03-14T08:41:42;6.90;;;3.50;;
57337;SDS011;43173;50.980;18.204;2023-03-14T08:44:10;7.30;;;3.30;;
57337;SDS011;43173;50.980;18.204;2023-03-14T08:46:36;10.90;;;4.00;;
57337;SDS011;43173;50.980;18.204;2023-03-14T08:49:02;7.20;;;3.50;;
57337;SDS011;43173;50.980;18.204;2023-03-14T08:51:29;8.90;;;3.70;;
57337;SDS011;43173;50.980;18.204;2023-03-14T08:53:54;7.60;;;4.50;;
57337;SDS011;43173;50.980;18.204;2023-03-14T08:56:20;7.30;;;3.90;;
57337;SDS011;43173;50.980;18.204;2023-03-14T08:58:46;7.70;;;3.50;;
57337;SDS011;43173;50.980;18.204;2023-03-14T09:01:12;6.80;;;3.20;;
57337;SDS011;43173;50.980;18.204;2023-03-14T09:03:37;9.20;;;3.90;;
57337;SDS011;43173;50.980;18.204;2023-03-14T09:06:04;9.00;;;3.40;;
57337;SDS011;43173;50.980;18.204;2023-03-14T09:08:35;6.20;;;3.20;;
57337;SDS011;43173;50.980;18.204;2023-03-14T09:11:01;6.80;;;3.90;;
57337;SDS011;43173;50.980;18.204;2023-03-14T09:13:26;9.70;;;4.10;;
57337;SDS011;43173;50.980;18.204;2023-03-14T09:15:53;8.60;;;4.90;;
57337;SDS011;43173;50.980;18.204;2023-03-14T09:18:19;8.40;;;4.40;;
57337;SDS011;43173;50.980;18.204;2023-03-14T09:20:45;7.30;;;4.00;;
57337;SDS011;43173;50.980;18.204;2023-03-14T09:23:11;6.80;;;4.20;;
57337;SDS011;43173;50.980;18.204;2023-03-14T09:25:37;5.40;;;3.00;;
57337;SDS011;43173;50.980;18.204;2023-03-14T09:28:02;6.90;;;4.00;;
57337;SDS011;43173;50.980;18.204;2023-03-14T09:30:28;6.40;;;3.70;;
57337;SDS011;43173;50.980;18.204;2023-03-14T09:32:54;5.80;;;2.90;;
57337;SDS011;43173;50.980;18.204;2023-03-14T09:35:19;7.90;;;3.50;;
57337;SDS011;43173;50.980;18.204;2023-03-14T09:37:45;9.50;;;3.90;;
57337;SDS011;43173;50.980;18.204;2023-03-14T09:40:15;9.90;;;4.00;;
57337;SDS011;43173;50.980;18.204;2023-03-14T09:42:42;6.80;;;3.60;;
57337;SDS011;43173;50.980;18.204;2023-03-14T09:45:27;7.10;;;3.40;;
57337;SDS011;43173;50.980;18.204;2023-03-14T09:47:55;5.90;;;3.50;;
57337;SDS011;43173;50.980;18.204;2023-03-14T09:50:22;6.60;;;3.30;;
57337;SDS011;43173;50.980;18.204;2023-03-14T09:52:50;6.70;;;3.20;;
57337;SDS011;43173;50.980;18.204;2023-03-14T09:55:18;6.40;;;3.20;;
57337;SDS011;43173;50.980;18.204;2023-03-14T09:57:46;6.70;;;3.60;;
57337;SDS011;43173;50.980;18.204;2023-03-14T10:00:14;4.80;;;3.50;;
57337;SDS011;43173;50.980;18.204;2023-03-14T10:02:45;8.80;;;3.80;;
57337;SDS011;43173;50.980;18.204;2023-03-14T10:05:18;7.50;;;4.40;;
57337;SDS011;43173;50.980;18.204;2023-03-14T10:07:46;9.30;;;4.50;;
57337;SDS011;43173;50.980;18.204;2023-03-14T10:12:44;8.30;;;4.20;;
57337;SDS011;43173;50.980;18.204;2023-03-14T10:15:12;7.80;;;4.50;;
57337;SDS011;43173;50.980;18.204;2023-03-14T10:17:44;8.80;;;4.60;;
57337;SDS011;43173;50.980;18.204;2023-03-14T10:20:32;8.10;;;4.70;;
57337;SDS011;43173;50.980;18.204;2023-03-14T10:23:00;7.50;;;3.70;;
57337;SDS011;43173;50.980;18.204;2023-03-14T10:25:29;5.00;;;3.50;;
57337;SDS011;43173;50.980;18.204;2023-03-14T10:27:56;10.20;;;4.40;;
57337;SDS011;43173;50.980;18.204;2023-03-14T10:35:55;9.50;;;4.30;;
57337;SDS011;43173;50.980;18.204;2023-03-14T10:38:23;13.20;;;5.90;;
57337;SDS011;43173;50.980;18.204;2023-03-14T10:40:51;9.60;;;5.00;;
57337;SDS011;43173;50.980;18.204;2023-03-14T10:43:19;9.20;;;5.50;;
57337;SDS011;43173;50.980;18.204;2023-03-14T10:45:51;6.40;;;4.20;;
57337;SDS011;43173;50.980;18.204;2023-03-14T10:48:32;11.20;;;5.30;;
57337;SDS011;43173;50.980;18.204;2023-03-14T10:53:43;13.10;;;6.00;;
57337;SDS011;43173;50.980;18.204;2023-03-14T10:58:53;14.40;;;7.20;;
57337;SDS011;43173;50.980;18.204;2023-03-14T11:03:56;15.40;;;6.80;;
57337;SDS011;43173;50.980;18.204;2023-03-14T11:07:08;13.70;;;7.70;;
57337;SDS011;43173;50.980;18.204;2023-03-14T11:09:18;13.50;;;7.10;;
57337;SDS011;43173;50.980;18.204;2023-03-14T11:11:52;17.20;;;8.50;;
57337;SDS011;43173;50.980;18.204;2023-03-14T11:14:25;16.10;;;8.30;;
57337;SDS011;43173;50.980;18.204;2023-03-14T11:17:05;12.00;;;7.00;;
57337;SDS011;43173;50.980;18.204;2023-03-14T11:22:13;15.50;;;8.40;;
57337;SDS011;43173;50.980;18.204;2023-03-14T11:27:23;12.50;;;7.90;;
57337;SDS011;43173;50.980;18.204;2023-03-14T11:35:19;12.30;;;7.20;;
57337;SDS011;43173;50.980;18.204;2023-03-14T11:38:09;12.00;;;7.40;;
57337;SDS011;43173;50.980;18.204;2023-03-14T11:40:43;12.70;;;6.90;;
57337;SDS011;43173;50.980;18.204;2023-03-14T11:51:24;15.00;;;7.70;;
57337;SDS011;43173;50.980;18.204;2023-03-14T11:56:58;11.40;;;7.70;;
57337;SDS011;43173;50.980;18.204;2023-03-14T12:01:57;7.30;;;6.20;;
57337;SDS011;43173;50.980;18.204;2023-03-14T12:07:12;12.10;;;6.80;;
57337;SDS011;43173;50.980;18.204;2023-03-14T12:21:24;23.60;;;10.20;;
57337;SDS011;43173;50.980;18.204;2023-03-14T12:24:14;44.20;;;17.10;;
57337;SDS011;43173;50.980;18.204;2023-03-14T12:26:50;95.70;;;29.60;;
57337;SDS011;43173;50.980;18.204;2023-03-14T12:29:19;93.90;;;29.60;;
57337;SDS011;43173;50.980;18.204;2023-03-14T12:31:48;79.60;;;25.20;;
57337;SDS011;43173;50.980;18.204;2023-03-14T12:34:32;54.70;;;19.80;;
57337;SDS011;43173;50.980;18.204;2023-03-14T12:43:02;19.00;;;9.80;;
57337;SDS011;43173;50.980;18.204;2023-03-14T12:45:36;29.10;;;12.40;;
57337;SDS011;43173;50.980;18.204;2023-03-14T13:02:02;13.40;;;7.90;;
57337;SDS011;43173;50.980;18.204;2023-03-14T13:05:14;14.50;;;7.90;;
57337;SDS011;43173;50.980;18.204;2023-03-14T13:17:46;18.30;;;9.50;;
57337;SDS011;43173;50.980;18.204;2023-03-14T13:20:15;22.40;;;10.30;;
57337;SDS011;43173;50.980;18.204;2023-03-14T13:22:50;22.40;;;10.90;;
57337;SDS011;43173;50.980;18.204;2023-03-14T13:25:16;13.80;;;9.20;;
57337;SDS011;43173;50.980;18.204;2023-03-14T13:27:43;14.60;;;8.80;;
57337;SDS011;43173;50.980;18.204;2023-03-14T13:30:16;14.70;;;7.40;;
57337;SDS011;43173;50.980;18.204;2023-03-14T13:32:46;15.40;;;7.80;;
57337;SDS011;43173;50.980;18.204;2023-03-14T13:38:03;12.50;;;7.50;;
57337;SDS011;43173;50.980;18.204;2023-03-14T13:40:33;12.70;;;7.50;;
57337;SDS011;43173;50.980;18.204;2023-03-14T13:48:32;11.90;;;7.40;;
57337;SDS011;43173;50.980;18.204;2023-03-14T13:51:06;10.20;;;6.90;;
57337;SDS011;43173;50.980;18.204;2023-03-14T13:56:18;11.30;;;7.30;;
57337;SDS011;43173;50.980;18.204;2023-03-14T13:58:49;10.50;;;6.90;;
57337;SDS011;43173;50.980;18.204;2023-03-14T14:01:19;12.10;;;7.00;;
57337;SDS011;43173;50.980;18.204;2023-03-14T14:03:48;13.90;;;7.20;;
57337;SDS011;43173;50.980;18.204;2023-03-14T14:06:37;9.80;;;6.70;;
57337;SDS011;43173;50.980;18.204;2023-03-14T14:09:26;14.80;;;7.90;;
57337;SDS011;43173;50.980;18.204;2023-03-14T14:11:58;9.20;;;6.80;;
57337;SDS011;43173;50.980;18.204;2023-03-14T14:14:32;10.80;;;7.10;;
57337;SDS011;43173;50.980;18.204;2023-03-14T14:17:01;12.00;;;7.10;;
57337;SDS011;43173;50.980;18.204;2023-03-14T14:19:28;12.50;;;7.40;;
57337;SDS011;43173;50.980;18.204;2023-03-14T14:21:55;12.10;;;7.60;;
57337;SDS011;43173;50.980;18.204;2023-03-14T14:24:22;13.40;;;7.30;;
57337;SDS011;43173;50.980;18.204;2023-03-14T14:26:53;11.80;;;7.10;;
57337;SDS011;43173;50.980;18.204;2023-03-14T14:29:30;13.30;;;7.20;;
57337;SDS011;43173;50.980;18.204;2023-03-14T14:34:40;13.90;;;8.40;;
57337;SDS011;43173;50.980;18.204;2023-03-14T14:40:22;13.80;;;8.10;;
57337;SDS011;43173;50.980;18.204;2023-03-14T14:42:47;15.70;;;9.60;;
57337;SDS011;43173;50.980;18.204;2023-03-14T14:45:21;14.20;;;8.50;;
57337;SDS011;43173;50.980;18.204;2023-03-14T14:50:31;14.50;;;8.30;;
57337;SDS011;43173;50.980;18.204;2023-03-14T14:52:59;15.60;;;8.50;;
57337;SDS011;43173;50.980;18.204;2023-03-14T14:55:32;15.80;;;7.60;;
57337;SDS011;43173;50.980;18.204;2023-03-14T14:58:12;11.40;;;7.90;;
57337;SDS011;43173;50.980;18.204;2023-03-14T15:00:49;11.80;;;8.40;;
57337;SDS011;43173;50.980;18.204;2023-03-14T15:03:18;12.10;;;6.70;;
57337;SDS011;43173;50.980;18.204;2023-03-14T15:05:44;14.30;;;7.60;;
57337;SDS011;43173;50.980;18.204;2023-03-14T15:08:10;13.10;;;8.60;;
57337;SDS011;43173;50.980;18.204;2023-03-14T15:10:36;11.20;;;6.40;;
57337;SDS011;43173;50.980;18.204;2023-03-14T15:13:02;11.90;;;7.40;;
57337;SDS011;43173;50.980;18.204;2023-03-14T15:15:27;11.10;;;7.40;;
57337;SDS011;43173;50.980;18.204;2023-03-14T15:17:53;15.10;;;8.20;;
57337;SDS011;43173;50.980;18.204;2023-03-14T15:20:19;15.40;;;8.10;;
57337;SDS011;43173;50.980;18.204;2023-03-14T15:22:46;16.40;;;8.10;;
57337;SDS011;43173;50.980;18.204;2023-03-14T15:25:12;15.60;;;8.40;;
57337;SDS011;43173;50.980;18.204;2023-03-14T15:27:38;14.40;;;8.30;;
57337;SDS011;43173;50.980;18.204;2023-03-14T15:30:14;15.20;;;8.40;;
57337;SDS011;43173;50.980;18.204;2023-03-14T15:32:40;16.50;;;8.70;;
57337;SDS011;43173;50.980;18.204;2023-03-14T15:35:06;14.90;;;8.80;;
57337;SDS011;43173;50.980;18.204;2023-03-14T15:37:33;14.30;;;8.00;;
57337;SDS011;43173;50.980;18.204;2023-03-14T15:39:59;16.30;;;9.30;;
57337;SDS011;43173;50.980;18.204;2023-03-14T15:42:25;16.80;;;8.40;;
57337;SDS011;43173;50.980;18.204;2023-03-14T15:44:50;14.80;;;8.30;;
57337;SDS011;43173;50.980;18.204;2023-03-14T15:47:16;10.70;;;7.10;;
57337;SDS011;43173;50.980;18.204;2023-03-14T15:49:42;12.90;;;8.00;;
57337;SDS011;43173;50.980;18.204;2023-03-14T15:52:08;13.00;;;7.60;;
57337;SDS011;43173;50.980;18.204;2023-03-14T15:54:34;12.20;;;7.30;;
57337;SDS011;43173;50.980;18.204;2023-03-14T15:57:00;14.70;;;7.60;;
57337;SDS011;43173;50.980;18.204;2023-03-14T15:59:26;13.20;;;7.90;;
57337;SDS011;43173;50.980;18.204;2023-03-14T16:01:51;13.80;;;7.50;;
57337;SDS011;43173;50.980;18.204;2023-03-14T16:04:17;12.00;;;7.70;;
57337;SDS011;43173;50.980;18.204;2023-03-14T16:06:44;12.40;;;7.20;;
57337;SDS011;43173;50.980;18.204;2023-03-14T16:09:13;13.70;;;8.10;;
57337;SDS011;43173;50.980;18.204;2023-03-14T16:11:39;13.10;;;8.70;;
57337;SDS011;43173;50.980;18.204;2023-03-14T16:14:05;11.40;;;6.20;;
57337;SDS011;43173;50.980;18.204;2023-03-14T16:16:31;10.30;;;7.10;;
57337;SDS011;43173;50.980;18.204;2023-03-14T16:18:57;12.60;;;7.30;;
57337;SDS011;43173;50.980;18.204;2023-03-14T16:21:22;13.40;;;7.90;;
57337;SDS011;43173;50.980;18.204;2023-03-14T16:23:48;13.00;;;7.70;;